createdAt,value
2023-12-30T00:00:25.086Z,1.40
2023-12-30T00:01:57.012Z,1.30
2023-12-30T00:03:29.017Z,1.10
2023-12-30T00:05:01.611Z,1.20
2023-12-30T00:06:35.443Z,1.80
2023-12-30T00:08:07.429Z,1.30
2023-12-30T00:09:39.338Z,1.10
2023-12-30T00:11:11.220Z,1.10
2023-12-30T00:12:43.026Z,0.80
2023-12-30T00:14:14.939Z,1.10
2023-12-30T00:15:46.784Z,1.10
2023-12-30T00:17:18.651Z,1.20
2023-12-30T00:18:50.675Z,1.40
2023-12-30T00:20:23.565Z,0.90
2023-12-30T00:21:55.433Z,1.50
2023-12-30T00:23:30.099Z,1.00
2023-12-30T00:25:07.050Z,1.10
2023-12-30T00:26:38.872Z,1.50
2023-12-30T00:28:14.130Z,0.90
2023-12-30T00:29:46.123Z,1.10
2023-12-30T00:31:29.116Z,0.80
2023-12-30T00:33:01.205Z,1.00
2023-12-30T00:34:35.035Z,1.10
2023-12-30T00:36:07.436Z,1.20
2023-12-30T00:37:39.447Z,0.90
2023-12-30T00:39:12.392Z,1.10
2023-12-30T00:40:44.304Z,1.00
2023-12-30T00:42:16.740Z,1.00
2023-12-30T00:43:49.055Z,0.90
2023-12-30T00:45:20.841Z,0.90
2023-12-30T00:46:52.665Z,1.30
2023-12-30T00:48:24.586Z,0.90
2023-12-30T00:49:56.546Z,0.90
2023-12-30T00:51:37.446Z,1.00
2023-12-30T00:53:09.195Z,0.80
2023-12-30T00:54:47.903Z,1.10
2023-12-30T00:56:23.546Z,0.80
2023-12-30T00:57:55.300Z,1.10
2023-12-30T00:59:27.102Z,1.20
2023-12-30T01:00:59.152Z,0.90
2023-12-30T01:02:30.929Z,0.90
2023-12-30T01:04:02.700Z,1.80
2023-12-30T01:05:34.577Z,1.20
2023-12-30T01:07:06.516Z,1.30
2023-12-30T01:08:38.597Z,0.70
2023-12-30T01:10:10.988Z,0.80
2023-12-30T01:11:43.458Z,1.60
2023-12-30T01:13:16.094Z,0.90
2023-12-30T01:14:47.877Z,1.00
2023-12-30T01:16:19.687Z,1.60
2023-12-30T01:17:51.880Z,1.10
2023-12-30T01:19:25.935Z,1.10
2023-12-30T01:20:57.710Z,1.20
2023-12-30T01:22:29.736Z,1.40
2023-12-30T01:24:01.623Z,0.70
2023-12-30T01:25:33.384Z,1.00
2023-12-30T01:27:05.632Z,0.90
2023-12-30T01:28:38.104Z,0.70
2023-12-30T01:30:10.238Z,0.80
2023-12-30T01:31:42.362Z,0.70
2023-12-30T01:33:14.259Z,1.00
2023-12-30T01:34:46.208Z,0.90
2023-12-30T01:36:18.127Z,0.90
2023-12-30T01:37:49.896Z,0.90
2023-12-30T01:39:21.660Z,0.60
2023-12-30T01:40:54.306Z,0.70
2023-12-30T01:42:26.121Z,0.90
2023-12-30T01:43:57.892Z,0.90
2023-12-30T01:45:30.020Z,0.50
2023-12-30T01:47:02.634Z,0.80
2023-12-30T01:48:36.175Z,0.80
2023-12-30T01:50:10.387Z,0.90
2023-12-30T01:51:42.181Z,0.60
2023-12-30T01:53:16.531Z,0.70
2023-12-30T01:54:48.438Z,0.60
2023-12-30T01:56:20.793Z,0.90
2023-12-30T01:57:52.808Z,1.10
2023-12-30T01:59:25.909Z,0.70
2023-12-30T02:00:59.565Z,0.80
2023-12-30T02:02:31.473Z,1.30
2023-12-30T02:04:03.490Z,0.90
2023-12-30T02:05:36.292Z,0.70
2023-12-30T02:07:08.794Z,1.00
2023-12-30T02:08:40.770Z,0.80
2023-12-30T02:10:13.306Z,0.70
2023-12-30T02:11:45.364Z,0.80
2023-12-30T02:13:17.575Z,0.80
2023-12-30T02:14:49.448Z,0.60
2023-12-30T02:16:21.324Z,1.00
2023-12-30T02:17:57.460Z,0.80
2023-12-30T02:19:29.743Z,1.00
2023-12-30T02:21:01.532Z,0.90
2023-12-30T02:22:33.878Z,0.70
2023-12-30T02:24:05.957Z,0.70
2023-12-30T02:25:38.235Z,1.00
2023-12-30T02:27:10.758Z,0.70
2023-12-30T02:28:42.567Z,0.80
2023-12-30T02:30:15.267Z,0.70
2023-12-30T02:31:47.556Z,0.80
2023-12-30T02:33:19.541Z,1.30
2023-12-30T02:34:51.366Z,0.80
2023-12-30T02:36:23.198Z,0.90
2023-12-30T02:37:55.026Z,0.80
2023-12-30T02:39:26.859Z,0.80
2023-12-30T02:40:58.581Z,0.80
2023-12-30T02:42:30.364Z,1.10
2023-12-30T02:44:04.538Z,1.60
2023-12-30T02:45:36.481Z,1.40
2023-12-30T02:47:08.456Z,0.90
2023-12-30T02:48:40.436Z,1.00
2023-12-30T02:50:12.245Z,0.70
2023-12-30T02:51:44.120Z,1.10
2023-12-30T02:53:16.078Z,1.20
2023-12-30T02:54:47.941Z,1.10
2023-12-30T02:56:25.629Z,0.80
2023-12-30T02:57:57.528Z,0.70
2023-12-30T02:59:31.035Z,1.00
2023-12-30T03:01:02.939Z,0.70
2023-12-30T03:02:34.773Z,1.00
2023-12-30T03:04:06.667Z,1.10
2023-12-30T03:05:38.510Z,0.80
2023-12-30T03:07:10.621Z,1.20
2023-12-30T03:08:42.420Z,0.70
2023-12-30T03:10:14.466Z,1.10
2023-12-30T03:11:46.740Z,0.70
2023-12-30T03:13:19.495Z,1.10
2023-12-30T03:14:51.389Z,0.80
2023-12-30T03:16:23.268Z,0.60
2023-12-30T03:17:55.112Z,0.60
2023-12-30T03:19:27.427Z,0.90
2023-12-30T03:21:00.202Z,0.80
2023-12-30T03:22:33.756Z,1.10
2023-12-30T03:24:06.272Z,1.10
2023-12-30T03:25:38.613Z,1.20
2023-12-30T03:27:11.280Z,1.20
2023-12-30T03:28:44.907Z,1.20
2023-12-30T03:30:16.839Z,1.40
2023-12-30T03:31:48.742Z,1.60
2023-12-30T03:33:20.762Z,1.20
2023-12-30T03:34:52.687Z,1.70
2023-12-30T03:36:24.901Z,1.20
2023-12-30T03:37:56.713Z,1.10
2023-12-30T03:39:28.720Z,1.30
2023-12-30T03:41:00.468Z,1.30
2023-12-30T03:42:32.243Z,1.20
2023-12-30T03:44:04.376Z,1.00
2023-12-30T03:45:36.098Z,1.00
2023-12-30T03:47:07.865Z,1.20
2023-12-30T03:48:39.903Z,0.90
2023-12-30T03:50:12.692Z,0.90
2023-12-30T03:51:45.139Z,1.50
2023-12-30T03:53:17.523Z,1.10
2023-12-30T03:54:49.352Z,0.90
2023-12-30T03:56:21.109Z,0.90
2023-12-30T03:57:54.900Z,0.80
2023-12-30T03:59:26.711Z,1.30
2023-12-30T04:00:58.593Z,1.30
2023-12-30T04:02:30.439Z,0.80
2023-12-30T04:04:03.992Z,1.10
2023-12-30T04:05:36.223Z,1.00
2023-12-30T04:07:08.180Z,1.10
2023-12-30T04:08:40.008Z,1.30
2023-12-30T04:10:14.255Z,1.30
2023-12-30T04:11:46.306Z,1.10
2023-12-30T04:13:18.171Z,1.10
2023-12-30T04:14:49.987Z,1.00
2023-12-30T04:16:22.158Z,1.40
2023-12-30T04:17:54.123Z,1.20
2023-12-30T04:19:26.206Z,1.40
2023-12-30T04:20:58.268Z,1.10
2023-12-30T04:22:30.358Z,1.20
2023-12-30T04:24:02.266Z,1.30
2023-12-30T04:25:34.560Z,1.10
2023-12-30T04:27:06.450Z,1.10
2023-12-30T04:28:38.274Z,1.00
2023-12-30T04:30:10.874Z,0.80
2023-12-30T04:31:42.981Z,0.80
2023-12-30T04:33:14.895Z,0.70
2023-12-30T04:34:46.759Z,0.50
2023-12-30T04:36:19.039Z,0.50
2023-12-30T04:37:51.659Z,0.90
2023-12-30T04:39:26.474Z,0.60
2023-12-30T04:41:02.173Z,0.70
2023-12-30T04:42:34.210Z,0.90
2023-12-30T04:44:06.918Z,0.80
2023-12-30T04:45:38.706Z,0.80
2023-12-30T04:47:13.448Z,0.90
2023-12-30T04:48:45.404Z,0.90
2023-12-30T04:50:17.277Z,0.80
2023-12-30T04:51:49.043Z,1.20
2023-12-30T04:53:20.852Z,1.40
2023-12-30T04:54:52.714Z,1.30
2023-12-30T04:56:24.582Z,1.40
2023-12-30T04:57:56.518Z,1.10
2023-12-30T04:59:28.478Z,1.30
2023-12-30T05:01:00.432Z,1.40
2023-12-30T05:02:32.456Z,1.30
2023-12-30T05:04:04.737Z,1.20
2023-12-30T05:05:36.779Z,1.00
2023-12-30T05:07:08.625Z,1.20
2023-12-30T05:08:40.693Z,1.20
2023-12-30T05:10:12.641Z,1.60
2023-12-30T05:11:45.942Z,1.10
2023-12-30T05:13:18.068Z,1.50
2023-12-30T05:14:49.985Z,1.40
2023-12-30T05:16:21.837Z,1.30
2023-12-30T05:17:55.039Z,1.30
2023-12-30T05:19:26.988Z,1.40
2023-12-30T05:20:58.815Z,1.10
2023-12-30T05:22:30.722Z,1.10
2023-12-30T05:24:02.878Z,1.50
2023-12-30T05:25:34.903Z,1.20
2023-12-30T05:27:06.796Z,1.50
2023-12-30T05:28:38.644Z,1.50
2023-12-30T05:30:10.925Z,1.30
2023-12-30T05:31:42.878Z,1.10
2023-12-30T05:33:14.854Z,1.40
2023-12-30T05:34:46.697Z,1.50
2023-12-30T05:36:18.504Z,1.20
2023-12-30T05:37:51.403Z,0.90
2023-12-30T05:39:23.357Z,1.50
2023-12-30T05:40:55.124Z,1.10
2023-12-30T05:42:26.972Z,1.00
2023-12-30T05:43:58.728Z,0.80
2023-12-30T05:45:30.437Z,1.30
2023-12-30T05:47:02.182Z,1.80
2023-12-30T05:48:35.053Z,1.10
2023-12-30T05:50:08.054Z,1.30
2023-12-30T05:51:43.943Z,1.20
2023-12-30T05:53:15.777Z,0.80
2023-12-30T05:54:47.679Z,1.10
2023-12-30T05:56:27.926Z,0.80
2023-12-30T05:57:59.850Z,0.90
2023-12-30T05:59:31.715Z,1.40
2023-12-30T06:01:03.756Z,1.00
2023-12-30T06:02:35.590Z,1.10
2023-12-30T06:04:07.401Z,1.10
2023-12-30T06:05:39.288Z,1.00
2023-12-30T06:07:11.154Z,0.90
2023-12-30T06:08:43.189Z,1.10
2023-12-30T06:10:15.299Z,1.20
2023-12-30T06:11:47.166Z,1.00
2023-12-30T06:13:18.991Z,0.80
2023-12-30T06:14:51.991Z,0.90
2023-12-30T06:16:23.843Z,0.90
2023-12-30T06:17:55.787Z,0.80
2023-12-30T06:19:27.827Z,1.10
2023-12-30T06:21:00.040Z,1.30
2023-12-30T06:22:32.569Z,0.80
2023-12-30T06:24:04.695Z,1.10
2023-12-30T06:25:36.670Z,0.90
2023-12-30T06:27:08.447Z,1.20
2023-12-30T06:28:40.412Z,1.30
2023-12-30T06:30:12.652Z,1.00
2023-12-30T06:31:44.638Z,0.70
2023-12-30T06:33:17.765Z,1.10
2023-12-30T06:34:50.112Z,1.10
2023-12-30T06:36:24.113Z,1.20
2023-12-30T06:37:55.960Z,0.90
2023-12-30T06:39:27.772Z,0.90
2023-12-30T06:40:59.863Z,0.90
2023-12-30T06:42:31.598Z,1.00
2023-12-30T06:44:03.428Z,1.30
2023-12-30T06:45:35.585Z,1.40
2023-12-30T06:47:07.360Z,1.10
2023-12-30T06:48:39.209Z,1.00
2023-12-30T06:50:13.526Z,1.50
2023-12-30T06:51:45.383Z,2.10
2023-12-30T06:53:17.195Z,1.30
2023-12-30T06:54:55.996Z,1.20
2023-12-30T06:56:34.672Z,1.10
2023-12-30T06:58:06.538Z,1.20
2023-12-30T06:59:38.381Z,0.90
2023-12-30T07:01:10.297Z,1.40
2023-12-30T07:02:43.103Z,1.90
2023-12-30T07:04:15.644Z,1.70
2023-12-30T07:05:47.702Z,1.40
2023-12-30T07:07:19.705Z,1.50
2023-12-30T07:08:51.554Z,1.50
2023-12-30T07:10:23.462Z,1.50
2023-12-30T07:11:55.261Z,1.30
2023-12-30T07:13:27.068Z,2.40
2023-12-30T07:14:58.939Z,1.20
2023-12-30T07:16:30.744Z,1.70
2023-12-30T07:18:03.291Z,1.80
2023-12-30T07:19:35.210Z,1.50
2023-12-30T07:21:06.970Z,1.50
2023-12-30T07:22:38.860Z,1.60
2023-12-30T07:24:10.664Z,1.90
2023-12-30T07:25:42.598Z,1.70
2023-12-30T07:27:16.286Z,1.70
2023-12-30T07:28:48.044Z,1.30
2023-12-30T07:30:20.016Z,1.20
2023-12-30T07:31:51.857Z,1.80
2023-12-30T07:33:24.309Z,1.40
2023-12-30T07:34:56.287Z,1.50
2023-12-30T07:36:28.473Z,1.40
2023-12-30T07:38:00.301Z,1.50
2023-12-30T07:39:34.039Z,1.30
2023-12-30T07:41:05.967Z,1.50
2023-12-30T07:42:37.682Z,1.50
2023-12-30T07:44:09.725Z,1.90
2023-12-30T07:45:41.700Z,1.40
2023-12-30T07:47:13.488Z,1.50
2023-12-30T07:48:45.417Z,2.00
2023-12-30T07:50:17.315Z,1.70
2023-12-30T07:51:49.327Z,1.50
2023-12-30T07:53:21.173Z,1.70
2023-12-30T07:54:53.936Z,1.50
2023-12-30T07:56:25.783Z,1.70
2023-12-30T07:57:57.616Z,1.80
2023-12-30T07:59:29.400Z,1.40
2023-12-30T08:01:01.250Z,1.50
2023-12-30T08:02:33.098Z,1.80
2023-12-30T08:04:05.228Z,1.30
2023-12-30T08:05:37.062Z,1.50
2023-12-30T08:07:08.817Z,1.70
2023-12-30T08:08:40.726Z,1.40
2023-12-30T08:10:12.629Z,1.40
2023-12-30T08:11:50.621Z,1.00
2023-12-30T08:13:30.756Z,1.30
2023-12-30T08:15:02.611Z,1.40
2023-12-30T08:16:37.140Z,1.30
2023-12-30T08:18:09.475Z,1.30
2023-12-30T08:19:41.335Z,1.40
2023-12-30T08:21:13.111Z,1.80
2023-12-30T08:22:45.002Z,1.50
2023-12-30T08:24:20.269Z,1.10
2023-12-30T08:25:52.089Z,1.40
2023-12-30T08:27:23.914Z,1.30
2023-12-30T08:28:56.548Z,1.20
2023-12-30T08:30:28.356Z,1.40
2023-12-30T08:32:00.590Z,1.00
2023-12-30T08:33:32.367Z,1.30
2023-12-30T08:35:08.728Z,1.60
2023-12-30T08:36:40.578Z,1.40
2023-12-30T08:38:12.417Z,0.90
2023-12-30T08:39:44.360Z,1.30
2023-12-30T08:41:16.279Z,1.70
2023-12-30T08:42:48.308Z,1.80
2023-12-30T08:44:20.183Z,1.30
2023-12-30T08:45:52.002Z,1.50
2023-12-30T08:47:23.832Z,1.30
2023-12-30T08:48:55.827Z,1.30
2023-12-30T08:50:27.692Z,1.60
2023-12-30T08:52:00.316Z,1.50
2023-12-30T08:53:32.428Z,1.60
2023-12-30T08:55:10.829Z,1.90
2023-12-30T08:56:43.361Z,1.80
2023-12-30T08:58:15.231Z,1.30
2023-12-30T08:59:48.499Z,1.60
2023-12-30T09:01:20.406Z,1.50
2023-12-30T09:02:56.205Z,1.50
2023-12-30T09:04:28.152Z,2.00
2023-12-30T09:06:00.103Z,1.20
2023-12-30T09:07:33.287Z,1.50
2023-12-30T09:09:05.668Z,1.60
2023-12-30T09:10:39.118Z,1.30
2023-12-30T09:12:11.059Z,1.50
2023-12-30T09:13:42.993Z,1.00
2023-12-30T09:15:15.090Z,1.30
2023-12-30T09:16:47.108Z,1.10
2023-12-30T09:18:19.441Z,1.90
2023-12-30T09:19:51.445Z,1.50
2023-12-30T09:21:23.303Z,1.30
2023-12-30T09:22:55.452Z,1.20
2023-12-30T09:24:27.229Z,0.90
2023-12-30T09:25:59.143Z,1.50
2023-12-30T09:27:30.896Z,1.40
2023-12-30T09:29:02.670Z,1.80
2023-12-30T09:30:34.447Z,1.40
2023-12-30T09:32:06.998Z,1.50
2023-12-30T09:33:38.873Z,1.50
2023-12-30T09:35:10.929Z,1.40
2023-12-30T09:36:42.785Z,1.60
2023-12-30T09:38:14.651Z,1.30
2023-12-30T09:39:47.002Z,1.50
2023-12-30T09:41:25.913Z,1.30
2023-12-30T09:43:06.448Z,1.40
2023-12-30T09:44:40.646Z,1.70
2023-12-30T09:46:13.866Z,1.10
2023-12-30T09:47:47.118Z,1.50
2023-12-30T09:49:20.528Z,1.30
2023-12-30T09:50:57.271Z,1.50
2023-12-30T09:52:29.601Z,1.40
2023-12-30T09:54:01.469Z,2.00
2023-12-30T09:55:33.283Z,1.30
2023-12-30T09:57:06.893Z,1.60
2023-12-30T09:58:41.415Z,2.00
2023-12-30T10:00:20.207Z,1.80
2023-12-30T10:01:52.429Z,1.00
2023-12-30T10:03:25.096Z,1.20
2023-12-30T10:04:58.988Z,1.70
2023-12-30T10:06:34.619Z,1.40
2023-12-30T10:08:07.699Z,2.10
2023-12-30T10:09:39.661Z,1.50
2023-12-30T10:11:12.160Z,1.30
2023-12-30T10:12:44.335Z,1.20
2023-12-30T10:14:16.880Z,1.60
2023-12-30T10:15:49.939Z,2.00
2023-12-30T10:17:22.057Z,1.90
2023-12-30T10:18:54.437Z,1.60
2023-12-30T10:20:26.370Z,1.60
2023-12-30T10:21:58.437Z,1.30
2023-12-30T10:23:32.417Z,1.50
2023-12-30T10:25:04.755Z,1.60
2023-12-30T10:26:38.718Z,1.90
2023-12-30T10:28:10.824Z,1.20
2023-12-30T10:29:47.174Z,1.80
2023-12-30T10:31:25.825Z,1.50
2023-12-30T10:33:15.476Z,1.70
2023-12-30T10:34:47.281Z,1.40
2023-12-30T10:36:20.261Z,1.60
2023-12-30T10:37:52.236Z,2.20
2023-12-30T10:39:24.367Z,2.10
2023-12-30T10:40:56.375Z,1.70
2023-12-30T10:42:28.244Z,1.60
2023-12-30T10:44:00.170Z,1.90
2023-12-30T10:45:32.452Z,1.70
2023-12-30T10:47:07.041Z,1.80
2023-12-30T10:48:57.525Z,1.60
2023-12-30T10:50:29.702Z,1.40
2023-12-30T10:52:09.009Z,1.40
2023-12-30T10:53:46.345Z,1.90
2023-12-30T10:55:21.532Z,1.70
2023-12-30T10:57:07.175Z,1.70
2023-12-30T11:00:16.482Z,1.50
2023-12-30T11:01:49.399Z,1.50
2023-12-30T11:03:22.860Z,1.50
2023-12-30T11:04:57.404Z,1.60
2023-12-30T11:06:50.832Z,1.50
2023-12-30T11:08:23.271Z,1.60
2023-12-30T11:09:55.116Z,1.70
2023-12-30T11:11:26.904Z,1.70
2023-12-30T11:12:58.714Z,1.40
2023-12-30T11:14:30.571Z,1.20
2023-12-30T11:16:20.266Z,2.20
2023-12-30T11:17:52.419Z,1.40
2023-12-30T11:19:30.890Z,1.70
2023-12-30T11:21:03.217Z,1.90
2023-12-30T11:22:37.037Z,1.60
2023-12-30T11:24:14.342Z,2.00
2023-12-30T11:25:49.195Z,1.70
2023-12-30T11:27:23.430Z,1.50
2023-12-30T11:28:55.346Z,1.70
2023-12-30T11:30:27.483Z,2.10
2023-12-30T11:32:02.446Z,1.40
2023-12-30T11:33:34.643Z,1.40
2023-12-30T11:35:06.946Z,1.60
2023-12-30T11:36:40.669Z,1.70
2023-12-30T11:38:13.374Z,1.70
2023-12-30T11:39:47.334Z,1.60
2023-12-30T11:41:20.507Z,1.20
2023-12-30T11:42:52.424Z,1.40
2023-12-30T11:44:24.490Z,1.60
2023-12-30T11:45:56.413Z,2.00
2023-12-30T11:47:29.995Z,1.80
2023-12-30T11:49:02.150Z,1.80
2023-12-30T11:50:36.913Z,1.50
2023-12-30T11:52:09.180Z,1.80
2023-12-30T11:53:41.111Z,1.80
2023-12-30T11:55:13.308Z,2.00
2023-12-30T11:56:45.523Z,1.70
2023-12-30T11:58:18.388Z,1.40
2023-12-30T11:59:52.033Z,1.70
2023-12-30T12:01:24.218Z,1.20
2023-12-30T12:02:57.281Z,1.80
2023-12-30T12:04:30.448Z,1.90
2023-12-30T12:06:02.376Z,1.90
2023-12-30T12:07:35.730Z,2.00
2023-12-30T12:09:08.774Z,1.60
2023-12-30T12:10:41.362Z,1.50
2023-12-30T12:12:13.430Z,1.90
2023-12-30T12:13:47.758Z,1.90
2023-12-30T12:15:20.431Z,2.00
2023-12-30T12:16:52.645Z,1.40
2023-12-30T12:18:25.473Z,2.00
2023-12-30T12:19:58.395Z,1.30
2023-12-30T12:21:30.589Z,1.70
2023-12-30T12:23:05.290Z,1.60
2023-12-30T12:24:37.179Z,1.60
2023-12-30T12:26:09.984Z,1.60
2023-12-30T12:27:42.149Z,1.30
2023-12-30T12:29:14.135Z,1.70
2023-12-30T12:30:46.496Z,1.30
2023-12-30T12:32:23.160Z,1.60
2023-12-30T12:33:54.956Z,1.30
2023-12-30T12:35:26.760Z,1.40
2023-12-30T12:36:58.610Z,1.10
2023-12-30T12:38:30.572Z,1.50
2023-12-30T12:40:02.499Z,2.00
2023-12-30T12:41:36.297Z,1.60
2023-12-30T12:43:08.413Z,1.40
2023-12-30T12:44:41.067Z,1.20
2023-12-30T12:46:13.194Z,1.30
2023-12-30T12:47:46.726Z,1.60
2023-12-30T12:49:20.736Z,1.70
2023-12-30T12:50:56.745Z,1.20
2023-12-30T12:52:28.730Z,1.40
2023-12-30T12:54:00.544Z,2.10
2023-12-30T12:55:32.429Z,1.30
2023-12-30T12:57:04.682Z,1.30
2023-12-30T12:58:36.982Z,1.60
2023-12-30T13:00:10.603Z,1.80
2023-12-30T13:01:42.826Z,1.60
2023-12-30T13:03:14.872Z,1.30
2023-12-30T13:04:47.041Z,1.40
2023-12-30T13:06:19.056Z,1.20
2023-12-30T13:07:51.293Z,1.20
2023-12-30T13:09:41.909Z,1.10
2023-12-30T13:11:14.664Z,1.20
2023-12-30T13:12:47.480Z,1.30
2023-12-30T13:14:21.965Z,0.90
2023-12-30T13:15:56.329Z,1.50
2023-12-30T13:17:28.174Z,1.30
2023-12-30T13:19:01.156Z,1.60
2023-12-30T13:20:32.968Z,1.90
2023-12-30T13:22:05.197Z,1.60
2023-12-30T13:23:37.015Z,1.10
2023-12-30T13:25:11.031Z,1.20
2023-12-30T13:26:46.579Z,1.40
2023-12-30T13:28:18.877Z,1.30
2023-12-30T13:29:50.840Z,1.40
2023-12-30T13:31:25.735Z,1.40
2023-12-30T13:32:59.146Z,1.00
2023-12-30T13:34:32.552Z,1.10
2023-12-30T13:36:12.500Z,1.20
2023-12-30T13:37:45.567Z,1.20
2023-12-30T13:39:18.415Z,1.20
2023-12-30T13:40:54.254Z,1.00
2023-12-30T13:42:26.584Z,1.00
2023-12-30T13:43:59.698Z,1.50
2023-12-30T13:45:34.046Z,1.30
2023-12-30T13:47:26.260Z,1.10
2023-12-30T13:49:01.380Z,1.30
2023-12-30T13:50:44.613Z,1.50
2023-12-30T13:52:17.419Z,1.20
2023-12-30T13:53:49.434Z,1.00
2023-12-30T13:55:22.877Z,1.10
2023-12-30T13:57:02.977Z,1.00
2023-12-30T13:58:34.843Z,0.80
2023-12-30T14:00:08.399Z,1.50
2023-12-30T14:01:40.877Z,1.20
2023-12-30T14:03:13.433Z,1.20
2023-12-30T14:04:49.872Z,0.70
2023-12-30T14:06:29.655Z,1.40
2023-12-30T14:08:16.768Z,1.20
2023-12-30T14:11:33.864Z,1.10
2023-12-30T14:13:06.583Z,0.90
2023-12-30T14:14:52.218Z,1.10
2023-12-30T14:16:24.140Z,1.00
2023-12-30T14:17:56.312Z,1.10
2023-12-30T14:19:28.707Z,1.00
2023-12-30T14:21:00.727Z,1.30
2023-12-30T14:22:34.000Z,1.40
2023-12-30T14:24:06.451Z,1.00
2023-12-30T14:25:40.099Z,1.00
2023-12-30T14:27:13.607Z,0.90
2023-12-30T14:28:45.613Z,0.80
2023-12-30T14:30:17.997Z,0.90
2023-12-30T14:31:49.782Z,1.00
2023-12-30T14:33:22.942Z,1.00
2023-12-30T14:34:55.012Z,1.10
2023-12-30T14:36:26.905Z,1.00
2023-12-30T14:37:58.817Z,1.00
2023-12-30T14:39:30.712Z,1.10
2023-12-30T14:41:03.653Z,1.00
2023-12-30T14:42:36.425Z,1.00
2023-12-30T14:44:09.284Z,1.10
2023-12-30T14:45:41.279Z,0.60
2023-12-30T14:47:13.134Z,0.90
2023-12-30T14:48:45.597Z,0.90
2023-12-30T14:50:17.816Z,0.90
2023-12-30T14:51:49.699Z,0.70
2023-12-30T14:53:21.469Z,0.80
2023-12-30T14:55:01.677Z,0.80
2023-12-30T14:56:35.745Z,0.80
2023-12-30T14:58:10.510Z,0.70
2023-12-30T14:59:42.451Z,0.60
2023-12-30T15:01:14.342Z,1.10
2023-12-30T15:02:46.516Z,0.80
2023-12-30T15:04:18.537Z,0.90
2023-12-30T15:05:50.700Z,1.10
2023-12-30T15:07:22.710Z,0.80
2023-12-30T15:08:55.393Z,0.70
2023-12-30T15:10:27.406Z,1.00
2023-12-30T15:11:59.271Z,1.20
2023-12-30T15:13:31.092Z,1.40
2023-12-30T15:15:04.624Z,0.80
2023-12-30T15:16:36.474Z,1.00
2023-12-30T15:18:08.564Z,0.60
2023-12-30T15:19:40.562Z,1.10
2023-12-30T15:21:12.553Z,0.60
2023-12-30T15:22:44.556Z,0.90
2023-12-30T15:24:17.946Z,0.80
2023-12-30T15:25:50.129Z,0.70
2023-12-30T15:27:22.537Z,0.80
2023-12-30T15:28:54.371Z,0.90
2023-12-30T15:30:26.229Z,0.90
2023-12-30T15:31:58.395Z,0.80
2023-12-30T15:33:31.382Z,0.70
2023-12-30T15:35:03.643Z,1.00
2023-12-30T15:36:35.481Z,0.90
2023-12-30T15:38:07.758Z,0.80
2023-12-30T15:39:39.745Z,1.10
2023-12-30T15:41:12.387Z,1.30
2023-12-30T15:42:44.240Z,0.90
2023-12-30T15:44:16.119Z,0.90
2023-12-30T15:45:48.587Z,0.90
2023-12-30T15:47:21.971Z,1.00
2023-12-30T15:48:53.910Z,1.00
2023-12-30T15:50:25.780Z,1.40
2023-12-30T15:51:57.982Z,1.00
2023-12-30T15:53:30.075Z,1.00
2023-12-30T15:55:02.168Z,1.30
2023-12-30T15:56:34.418Z,1.70
2023-12-30T15:58:06.767Z,0.90
2023-12-30T15:59:39.155Z,0.70
2023-12-30T16:01:10.951Z,1.10
2023-12-30T16:02:43.178Z,0.80
2023-12-30T16:04:15.229Z,1.00
2023-12-30T16:05:48.367Z,1.10
2023-12-30T16:07:20.198Z,1.10
2023-12-30T16:08:52.209Z,1.10
2023-12-30T16:10:27.290Z,1.20
2023-12-30T16:12:00.205Z,0.90
2023-12-30T16:13:33.785Z,1.10
2023-12-30T16:15:06.800Z,1.20
2023-12-30T16:16:45.133Z,1.10
2023-12-30T16:18:17.598Z,1.20
2023-12-30T16:19:49.699Z,1.40
2023-12-30T16:21:21.539Z,1.00
2023-12-30T16:22:53.321Z,1.00
2023-12-30T16:24:25.112Z,1.90
2023-12-30T16:25:56.955Z,1.60
2023-12-30T16:27:28.816Z,1.30
2023-12-30T16:29:02.294Z,1.10
2023-12-30T16:30:34.187Z,1.50
2023-12-30T16:32:06.356Z,1.10
2023-12-30T16:33:41.740Z,1.10
2023-12-30T16:35:14.117Z,1.00
2023-12-30T16:36:46.119Z,1.10
2023-12-30T16:38:18.369Z,1.10
2023-12-30T16:39:52.695Z,1.20
2023-12-30T16:41:25.586Z,1.30
2023-12-30T16:42:57.785Z,1.40
2023-12-30T16:44:29.523Z,1.00
2023-12-30T16:46:02.156Z,0.90
2023-12-30T16:47:35.651Z,1.30
2023-12-30T16:49:08.176Z,1.50
2023-12-30T16:50:40.560Z,1.10
2023-12-30T16:52:12.489Z,1.40
2023-12-30T16:53:44.548Z,1.40
2023-12-30T16:55:16.709Z,0.90
2023-12-30T16:56:48.992Z,1.00
2023-12-30T16:58:20.842Z,0.90
2023-12-30T16:59:53.672Z,1.00
2023-12-30T17:01:25.559Z,0.80
2023-12-30T17:02:57.801Z,1.00
2023-12-30T17:04:29.847Z,1.10
2023-12-30T17:06:02.084Z,1.20
2023-12-30T17:07:34.517Z,1.00
2023-12-30T17:09:06.560Z,1.10
2023-12-30T17:10:38.511Z,1.30
2023-12-30T17:12:10.407Z,1.80
2023-12-30T17:13:50.144Z,1.80
2023-12-30T17:15:25.328Z,1.30
2023-12-30T17:16:57.122Z,1.60
2023-12-30T17:18:29.072Z,1.50
2023-12-30T17:20:00.842Z,1.60
2023-12-30T17:21:33.643Z,2.00
2023-12-30T17:23:07.118Z,1.20
2023-12-30T17:24:38.920Z,1.30
2023-12-30T17:26:11.795Z,1.10
2023-12-30T17:27:43.649Z,1.10
2023-12-30T17:29:16.835Z,1.00
2023-12-30T17:30:48.748Z,1.20
2023-12-30T17:32:21.750Z,1.10
2023-12-30T17:33:53.783Z,1.20
2023-12-30T17:35:27.752Z,1.00
2023-12-30T17:36:59.528Z,0.90
2023-12-30T17:38:31.424Z,1.10
2023-12-30T17:40:07.210Z,0.80
2023-12-30T17:41:39.000Z,1.30
2023-12-30T17:43:10.861Z,1.10
2023-12-30T17:44:42.714Z,1.20
2023-12-30T17:46:14.604Z,0.90
2023-12-30T17:47:46.621Z,0.80
2023-12-30T17:49:30.152Z,1.00
2023-12-30T17:51:01.962Z,1.30
2023-12-30T17:52:34.828Z,1.10
2023-12-30T17:54:06.727Z,1.10
2023-12-30T17:55:38.904Z,0.70
2023-12-30T17:57:10.689Z,1.10
2023-12-30T17:58:42.551Z,1.00
2023-12-30T18:00:15.088Z,0.70
2023-12-30T18:01:46.933Z,0.70
2023-12-30T18:03:19.007Z,1.00
2023-12-30T18:04:51.167Z,1.00
2023-12-30T18:06:22.975Z,0.80
2023-12-30T18:07:54.801Z,0.80
2023-12-30T18:09:26.590Z,0.60
2023-12-30T18:10:58.388Z,0.80
2023-12-30T18:12:30.143Z,0.90
2023-12-30T18:14:02.724Z,0.90
2023-12-30T18:15:34.945Z,1.10
2023-12-30T18:17:07.305Z,1.10
2023-12-30T18:18:39.296Z,0.70
2023-12-30T18:20:12.553Z,0.70
2023-12-30T18:21:45.054Z,0.80
2023-12-30T18:23:17.159Z,0.90
2023-12-30T18:24:49.053Z,0.80
2023-12-30T18:26:21.340Z,0.80
2023-12-30T18:27:53.186Z,0.90
2023-12-30T18:29:24.912Z,1.00
2023-12-30T18:30:56.674Z,0.70
2023-12-30T18:32:29.108Z,0.50
2023-12-30T18:34:01.155Z,0.60
2023-12-30T18:35:33.041Z,0.90
2023-12-30T18:37:06.619Z,0.70
2023-12-30T18:38:38.470Z,0.80
2023-12-30T18:40:11.951Z,0.70
2023-12-30T18:41:43.850Z,0.80
2023-12-30T18:43:16.027Z,0.60
2023-12-30T18:44:47.887Z,0.50
2023-12-30T18:46:20.032Z,0.70
2023-12-30T18:47:51.868Z,0.60
2023-12-30T18:49:23.816Z,0.70
2023-12-30T18:50:55.662Z,0.50
2023-12-30T18:52:27.430Z,0.70
2023-12-30T18:53:59.621Z,0.70
2023-12-30T18:55:32.158Z,0.70
2023-12-30T18:57:04.566Z,0.60
2023-12-30T18:58:36.394Z,0.90
2023-12-30T19:00:09.104Z,0.90
2023-12-30T19:01:45.624Z,1.00
2023-12-30T19:03:17.423Z,0.80
2023-12-30T19:04:49.421Z,1.20
2023-12-30T19:06:21.292Z,0.60
2023-12-30T19:07:53.016Z,0.90
2023-12-30T19:09:24.806Z,0.90
2023-12-30T19:10:56.818Z,0.80
2023-12-30T19:12:29.995Z,0.60
2023-12-30T19:14:01.985Z,0.70
2023-12-30T19:15:33.801Z,0.70
2023-12-30T19:17:05.710Z,0.50
2023-12-30T19:18:37.695Z,0.70
2023-12-30T19:20:10.231Z,0.70
2023-12-30T19:21:41.995Z,0.70
2023-12-30T19:23:13.938Z,0.60
2023-12-30T19:24:45.755Z,0.70
2023-12-30T19:26:17.874Z,0.60
2023-12-30T19:27:51.462Z,0.80
2023-12-30T19:29:23.216Z,0.70
2023-12-30T19:30:55.164Z,0.60
2023-12-30T19:32:27.121Z,0.70
2023-12-30T19:33:59.907Z,0.70
2023-12-30T19:35:32.688Z,0.70
2023-12-30T19:37:04.643Z,0.80
2023-12-30T19:38:36.562Z,1.00
2023-12-30T19:40:09.814Z,0.60
2023-12-30T19:41:43.479Z,0.60
2023-12-30T19:43:15.609Z,0.70
2023-12-30T19:44:47.733Z,0.80
2023-12-30T19:46:19.721Z,1.00
2023-12-30T19:47:51.703Z,0.80
2023-12-30T19:49:23.587Z,0.90
2023-12-30T19:50:55.384Z,1.20
2023-12-30T19:52:27.193Z,0.90
2023-12-30T19:53:59.026Z,1.20
2023-12-30T19:55:30.884Z,1.20
2023-12-30T19:57:02.762Z,1.00
2023-12-30T19:58:34.580Z,1.70
2023-12-30T20:00:07.944Z,1.50
2023-12-30T20:01:39.836Z,1.60
2023-12-30T20:03:13.758Z,1.20
2023-12-30T20:04:45.494Z,1.30
2023-12-30T20:06:17.682Z,1.20
2023-12-30T20:07:49.529Z,1.10
2023-12-30T20:09:21.627Z,1.30
2023-12-30T20:10:53.448Z,1.00
2023-12-30T20:12:25.267Z,0.90
2023-12-30T20:13:57.092Z,0.70
2023-12-30T20:15:28.847Z,0.60
2023-12-30T20:17:01.737Z,0.60
2023-12-30T20:18:34.225Z,0.60
2023-12-30T20:20:07.324Z,0.60
2023-12-30T20:21:39.509Z,0.70
2023-12-30T20:23:11.343Z,0.60
2023-12-30T20:24:43.085Z,0.60
2023-12-30T20:26:14.849Z,0.60
2023-12-30T20:27:46.678Z,0.60
2023-12-30T20:29:18.529Z,0.50
2023-12-30T20:30:50.403Z,0.40
2023-12-30T20:32:23.033Z,0.50
2023-12-30T20:33:54.996Z,0.60
2023-12-30T20:35:26.915Z,0.30
2023-12-30T20:36:58.745Z,0.50
2023-12-30T20:38:30.597Z,0.50